Time;durP1;ratioP1;P1;durP2;ratioP2;P2;SDS_P1;SDS_P2;PMS_P1;PMS_P2;Temp;Humidity;BMP_temperature;BMP_pressure;BME280_temperature;BME280_humidity;BME280_pressure;Samples;Min_cycle;Max_cycle;Signal;HPM_P1;HPM_P2
2022/09/25 00:01:10;;;;;;;1.65;1.55;;;;;;;-146.19;100.00;65364.44;10293000;28;20486;-52
2022/09/25 00:06:32;;;;;;;4.80;1.90;;;;;;;-146.19;100.00;65364.44;10295478;28;20059;-51
2022/09/25 00:11:51;;;;;;;2.00;1.80;;;;;;;-146.19;100.00;65364.44;10294505;28;20518;-51
2022/09/25 00:17:11;;;;;;;2.00;1.70;;;;;;;-146.19;100.00;65364.44;10295261;28;20059;-51
2022/09/25 00:22:30;;;;;;;2.00;1.85;;;;;;;-146.19;100.00;65364.44;10305807;28;20042;-51
2022/09/25 00:27:52;;;;;;;1.85;1.73;;;;;;;-146.19;100.00;65364.44;10293658;28;20054;-52
2022/09/25 00:33:11;;;;;;;2.05;1.85;;;;;;;-146.19;100.00;65364.44;10305366;28;20054;-52
2022/09/25 00:38:31;;;;;;;1.95;1.85;;;;;;;-146.19;100.00;65364.44;10307126;28;20097;-52
2022/09/25 00:43:53;;;;;;;1.88;1.77;;;;;;;-146.19;100.00;65364.44;10302761;28;20418;-52
2022/09/25 00:49:19;;;;;;;2.28;2.08;;;;;;;-146.19;100.00;65364.44;10303593;28;20051;-51
2022/09/25 00:54:46;;;;;;;2.15;1.95;;;;;;;-146.19;100.00;65364.44;10292831;28;20051;-52
2022/09/25 01:00:10;;;;;;;1.90;1.80;;;;;;;-146.19;100.00;65364.44;10303691;28;20063;-51
2022/09/25 01:05:33;;;;;;;1.88;1.77;;;;;;;-146.19;100.00;65364.44;10295764;28;20058;-53
2022/09/25 01:10:53;;;;;;;1.98;1.80;;;;;;;-146.19;100.00;65364.44;10290898;28;20050;-51
2022/09/25 01:16:43;;;;;;;2.20;2.00;;;;;;;-146.19;100.00;65364.44;10292265;28;20054;-51
2022/09/25 01:22:17;;;;;;;2.00;1.85;;;;;;;-146.19;100.00;65364.44;10298453;28;20110;-52
2022/09/25 01:28:07;;;;;;;1.83;1.70;;;;;;;-146.19;100.00;65364.44;10285807;28;20499;-51
2022/09/25 01:33:34;;;;;;;1.80;1.70;;;;;;;-146.19;100.00;65364.44;10292536;28;20057;-51
2022/09/25 01:39:02;;;;;;;2.08;1.88;;;;;;;-146.19;100.00;65364.44;10279737;28;20051;-51
2022/09/25 01:44:29;;;;;;;1.80;1.70;;;;;;;-146.19;100.00;65364.44;10289648;28;20058;-51
2022/09/25 01:50:06;;;;;;;1.90;1.80;;;;;;;-146.19;100.00;65364.44;10283514;28;20058;-51
2022/09/25 01:55:35;;;;;;;2.10;1.90;;;;;;;-146.19;100.00;65364.44;10310527;28;20047;-51
2022/09/25 02:00:59;;;;;;;1.90;1.80;;;;;;;-146.19;100.00;65364.44;10302012;28;20469;-52
2022/09/25 02:06:19;;;;;;;2.17;1.75;;;;;;;-146.19;100.00;65364.44;10284478;28;20065;-51
2022/09/25 02:11:43;;;;;;;1.88;1.77;;;;;;;-146.19;100.00;65364.44;10305289;28;20066;-51
2022/09/25 02:17:04;;;;;;;1.80;1.70;;;;;;;-146.19;100.00;65364.44;10299554;28;20426;-52
2022/09/25 02:22:25;;;;;;;2.15;1.95;;;;;;;-146.19;100.00;65364.44;10284577;28;20050;-51
2022/09/25 02:27:45;;;;;;;2.45;1.90;;;;;;;-146.19;100.00;65364.44;10297242;28;20051;-52
2022/09/25 02:33:04;;;;;;;2.03;1.83;;;;;;;-146.19;100.00;65364.44;10290616;28;20106;-53
2022/09/25 02:38:23;;;;;;;1.80;1.70;;;;;;;-146.19;100.00;65364.44;10291929;28;20077;-52
2022/09/25 02:43:59;;;;;;;2.20;2.00;;;;;;;-146.19;100.00;65364.44;10311414;28;20127;-52
2022/09/25 02:49:28;;;;;;;1.85;1.73;;;;;;;-146.19;100.00;65364.44;10288505;28;20121;-52
2022/09/25 02:55:19;;;;;;;2.20;2.00;;;;;;;-146.19;100.00;65364.44;10299231;28;20064;-51
2022/09/25 03:00:39;;;;;;;1.73;1.63;;;;;;;-146.19;100.00;65364.44;10297917;28;20055;-51
2022/09/25 03:06:00;;;;;;;2.25;2.05;;;;;;;-146.19;100.00;65364.44;10297089;28;20498;-51
2022/09/25 03:11:20;;;;;;;1.83;1.73;;;;;;;-146.19;100.00;65364.44;10310445;28;20490;-51
2022/09/25 03:16:51;;;;;;;1.90;1.80;;;;;;;-146.19;100.00;65364.44;10302294;28;20058;-52
2022/09/25 03:22:11;;;;;;;1.90;1.80;;;;;;;-146.19;100.00;65364.44;10296563;28;20123;-51
2022/09/25 03:27:30;;;;;;;2.03;1.90;;;;;;;-146.19;100.00;65364.44;10293008;28;20055;-52
2022/09/25 03:32:49;;;;;;;1.85;1.75;;;;;;;-146.19;100.00;65364.44;10296092;28;20495;-51
2022/09/25 03:38:09;;;;;;;1.85;1.75;;;;;;;-146.19;100.00;65364.44;10297005;28;20465;-52
2022/09/25 03:43:31;;;;;;;2.15;1.95;;;;;;;-146.19;100.00;65364.44;10312976;28;20041;-52
2022/09/25 03:48:52;;;;;;;1.52;1.42;;;;;;;-146.19;100.00;65364.44;10298951;28;20077;-51
2022/09/25 03:54:11;;;;;;;2.15;1.95;;;;;;;-146.19;100.00;65364.44;10313788;28;20509;-53
2022/09/25 03:59:31;;;;;;;1.90;1.80;;;;;;;-146.19;100.00;65364.44;10295351;28;20517;-51
2022/09/25 04:04:52;;;;;;;1.83;1.73;;;;;;;-146.19;100.00;65364.44;10312939;28;20421;-52
2022/09/25 04:10:13;;;;;;;2.05;1.92;;;;;;;-146.19;100.00;65364.44;10330947;28;20054;-52
2022/09/25 04:15:33;;;;;;;1.95;1.75;;;;;;;-146.19;100.00;65364.44;10301682;28;20466;-52
2022/09/25 04:20:52;;;;;;;1.83;1.60;;;;;;;-146.19;100.00;65364.44;10294932;28;20059;-51
2022/09/25 04:26:12;;;;;;;1.90;1.70;;;;;;;-146.19;100.00;65364.44;10306877;28;20073;-52
2022/09/25 04:31:32;;;;;;;1.90;1.80;;;;;;;-146.19;100.00;65364.44;10301221;28;20046;-52
2022/09/25 04:36:51;;;;;;;2.15;1.98;;;;;;;-146.19;100.00;65364.44;10309534;28;20063;-52
2022/09/25 04:42:11;;;;;;;1.83;1.73;;;;;;;-146.19;100.00;65364.44;10286945;28;20047;-51
2022/09/25 04:47:31;;;;;;;1.77;1.67;;;;;;;-146.19;100.00;65364.44;10303538;28;20059;-51
2022/09/25 04:52:51;;;;;;;1.90;1.80;;;;;;;-146.19;100.00;65364.44;10296414;28;20054;-52
2022/09/25 04:58:10;;;;;;;1.80;1.70;;;;;;;-146.19;100.00;65364.44;10279330;28;20135;-53
2022/09/25 05:03:29;;;;;;;1.83;1.70;;;;;;;-146.19;100.00;65364.44;10295546;28;20491;-50
2022/09/25 05:08:49;;;;;;;1.70;1.60;;;;;;;-146.19;100.00;65364.44;10295553;28;20043;-51
2022/09/25 05:14:08;;;;;;;1.80;1.70;;;;;;;-146.19;100.00;65364.44;10292815;28;20110;-52
2022/09/25 05:19:28;;;;;;;1.52;1.42;;;;;;;-146.19;100.00;65364.44;10293428;28;20051;-52
2022/09/25 05:24:48;;;;;;;2.00;1.80;;;;;;;-146.19;100.00;65364.44;10292626;28;20074;-53
2022/09/25 05:30:10;;;;;;;1.85;1.75;;;;;;;-146.19;100.00;65364.44;10282728;28;20047;-51
2022/09/25 05:35:31;;;;;;;1.65;1.55;;;;;;;-146.19;100.00;65364.44;10304646;28;20066;-51
2022/09/25 05:40:51;;;;;;;2.15;1.88;;;;;;;-146.19;100.00;65364.44;10304282;28;20505;-52
2022/09/25 05:46:10;;;;;;;1.75;1.65;;;;;;;-146.19;100.00;65364.44;10308530;28;20061;-52
2022/09/25 05:51:30;;;;;;;1.60;1.50;;;;;;;-146.19;100.00;65364.44;10314103;28;20047;-52
2022/09/25 05:56:50;;;;;;;2.13;1.75;;;;;;;-146.19;100.00;65364.44;10291706;28;20066;-51
2022/09/25 06:02:11;;;;;;;1.83;1.73;;;;;;;-146.19;100.00;65364.44;10291808;28;20069;-52
2022/09/25 06:07:30;;;;;;;1.60;1.50;;;;;;;-146.19;100.00;65364.44;10291340;28;20051;-52
2022/09/25 06:12:50;;;;;;;1.92;1.83;;;;;;;-146.19;100.00;65364.44;10315291;28;20483;-52
2022/09/25 06:18:09;;;;;;;2.10;1.90;;;;;;;-146.19;100.00;65364.44;10304432;28;20125;-50
2022/09/25 06:23:29;;;;;;;1.80;1.70;;;;;;;-146.19;100.00;65364.44;10303959;28;20506;-51
2022/09/25 06:28:50;;;;;;;1.60;1.50;;;;;;;-146.19;100.00;65364.44;10272977;28;20533;-49
2022/09/25 06:34:10;;;;;;;2.10;1.90;;;;;;;-146.19;100.00;65364.44;10280381;28;20081;-51
2022/09/25 06:39:32;;;;;;;2.03;1.88;;;;;;;-146.19;100.00;65364.44;10290883;28;20062;-52
2022/09/25 06:44:51;;;;;;;1.80;1.70;;;;;;;-146.19;100.00;65364.44;10316781;28;20096;-51
2022/09/25 06:50:13;;;;;;;1.80;1.70;;;;;;;-146.19;100.00;65364.44;10303453;28;20061;-52
2022/09/25 06:55:36;;;;;;;1.75;1.65;;;;;;;-146.19;100.00;65364.44;10298333;28;20085;-52
2022/09/25 07:00:56;;;;;;;1.60;1.50;;;;;;;-146.19;100.00;65364.44;10309084;28;20039;-51
2022/09/25 07:06:21;;;;;;;1.73;1.63;;;;;;;-146.19;100.00;65364.44;10298022;28;21049;-51
2022/09/25 07:11:42;;;;;;;1.95;1.83;;;;;;;-146.19;100.00;65364.44;10310659;28;20383;-52
2022/09/25 07:17:02;;;;;;;2.42;1.77;;;;;;;-146.19;100.00;65364.44;10297436;28;20059;-50
2022/09/25 07:22:21;;;;;;;1.70;1.60;;;;;;;-146.19;100.00;65364.44;10300510;28;20054;-52
2022/09/25 07:27:40;;;;;;;1.83;1.70;;;;;;;-146.19;100.00;65364.44;10319185;28;20051;-51
2022/09/25 07:33:01;;;;;;;1.90;1.80;;;;;;;-146.19;100.00;65364.44;10297350;28;20109;-52
2022/09/25 07:38:21;;;;;;;2.00;1.80;;;;;;;-146.19;100.00;65364.44;10296886;28;20055;-51
2022/09/25 07:43:42;;;;;;;1.90;1.80;;;;;;;-146.19;100.00;65364.44;10296450;28;20051;-52
2022/09/25 07:49:01;;;;;;;1.70;1.60;;;;;;;-146.19;100.00;65364.44;10308938;28;20086;-51
2022/09/25 07:54:21;;;;;;;1.83;1.73;;;;;;;-146.19;100.00;65364.44;10303646;28;20055;-52
2022/09/25 07:59:40;;;;;;;1.80;1.70;;;;;;;-146.19;100.00;65364.44;10301760;28;20046;-51
2022/09/25 08:05:00;;;;;;;1.55;1.45;;;;;;;-146.19;100.00;65364.44;10297322;28;20055;-52
2022/09/25 08:10:20;;;;;;;2.00;1.80;;;;;;;-146.19;100.00;65364.44;10308307;28;20418;-51
2022/09/25 08:15:40;;;;;;;1.65;1.55;;;;;;;-146.19;100.00;65364.44;10295276;28;20051;-52
2022/09/25 08:21:01;;;;;;;1.90;1.70;;;;;;;-146.19;100.00;65364.44;10294795;28;20498;-50
2022/09/25 08:26:21;;;;;;;1.63;1.52;;;;;;;-146.19;100.00;65364.44;10282590;28;20411;-52
2022/09/25 08:31:41;;;;;;;1.75;1.65;;;;;;;-146.19;100.00;65364.44;10308707;28;20051;-51
2022/09/25 08:37:00;;;;;;;1.70;1.60;;;;;;;-146.19;100.00;65364.44;10311062;28;20066;-52
2022/09/25 08:42:28;;;;;;;1.50;1.40;;;;;;;-146.19;100.00;65364.44;10307421;28;20046;-49
2022/09/25 08:53:28;;;;;;;1.63;1.52;;;;;;;-146.19;100.00;65364.44;10296504;28;20051;-51
2022/09/25 08:59:00;;;;;;;1.65;1.55;;;;;;;-146.19;100.00;65364.44;10293951;28;20081;-51
2022/09/25 09:04:32;;;;;;;1.50;1.40;;;;;;;-146.19;100.00;65364.44;10279155;28;20061;-51
2022/09/25 09:09:58;;;;;;;1.90;1.80;;;;;;;-146.19;100.00;65364.44;10307141;28;20055;-52
2022/09/25 09:15:27;;;;;;;1.60;1.50;;;;;;;-146.19;100.00;65364.44;10292648;28;20055;-52
2022/09/25 09:21:21;;;;;;;1.67;1.58;;;;;;;-146.19;100.00;65364.44;10280927;28;20101;-50
2022/09/25 09:26:48;;;;;;;1.85;1.73;;;;;;;-146.19;100.00;65364.44;10259142;28;20062;-51
2022/09/25 09:32:27;;;;;;;1.60;1.50;;;;;;;-146.19;100.00;65364.44;10271487;28;20050;-51
2022/09/25 09:37:49;;;;;;;1.60;1.50;;;;;;;-146.19;100.00;65364.44;10301286;28;20049;-51
2022/09/25 09:43:22;;;;;;;1.80;1.70;;;;;;;-146.19;100.00;65364.44;10305200;28;20053;-52
2022/09/25 09:48:49;;;;;;;1.70;1.60;;;;;;;-146.19;100.00;65364.44;10295214;28;20062;-51
2022/09/25 09:54:14;;;;;;;1.60;1.50;;;;;;;-146.19;100.00;65364.44;10302041;28;20042;-52
2022/09/25 09:59:46;;;;;;;1.70;1.60;;;;;;;-146.19;100.00;65364.44;10341802;28;20050;-52
2022/09/25 10:05:16;;;;;;;1.45;1.35;;;;;;;-146.19;100.00;65364.44;10291998;28;20054;-50
2022/09/25 10:10:38;;;;;;;1.60;1.50;;;;;;;-146.19;100.00;65364.44;10266440;28;20503;-50
2022/09/25 10:16:10;;;;;;;1.60;1.50;;;;;;;-146.19;100.00;65364.44;10292803;28;20065;-51
2022/09/25 10:21:33;;;;;;;1.60;1.50;;;;;;;-146.19;100.00;65364.44;10304659;28;20039;-51
2022/09/25 10:26:52;;;;;;;1.42;1.33;;;;;;;-146.19;100.00;65364.44;10261950;28;20051;-53
2022/09/25 10:32:12;;;;;;;1.50;1.40;;;;;;;-146.19;100.00;65364.44;10300539;28;20070;-51
2022/09/25 10:37:34;;;;;;;1.60;1.50;;;;;;;-146.19;100.00;65364.44;10309404;28;20054;-50
2022/09/25 10:43:16;;;;;;;1.40;1.30;;;;;;;-146.19;100.00;65364.44;10298282;28;20509;-52
2022/09/25 10:54:15;;;;;;;;;;;;;;;-146.19;100.00;65364.44;10308984;28;20055;-52
2022/09/25 10:59:35;;;;;;;1.60;1.50;;;;;;;-146.19;100.00;65364.44;10316702;28;19929;-51
2022/09/25 11:04:56;;;;;;;1.52;1.42;;;;;;;-146.19;100.00;65364.44;10296653;28;20051;-52
2022/09/25 11:10:20;;;;;;;1.10;1.10;;;;;;;-146.19;100.00;65364.44;10313613;28;20050;-53
2022/09/25 11:15:47;;;;;;;1.42;1.33;;;;;;;-146.19;100.00;65364.44;10288222;28;20050;-52
2022/09/25 11:21:25;;;;;;;1.42;1.33;;;;;;;-146.19;100.00;65364.44;10298683;28;20089;-52
2022/09/25 11:26:50;;;;;;;1.70;1.60;;;;;;;-146.19;100.00;65364.44;10322295;28;20498;-52
2022/09/25 11:32:22;;;;;;;1.58;1.48;;;;;;;-146.19;100.00;65364.44;10298798;28;20047;-51
2022/09/25 11:38:05;;;;;;;1.40;1.10;;;;;;;-146.19;100.00;65364.44;10309924;28;20058;-52
2022/09/25 11:43:41;;;;;;;1.50;1.40;;;;;;;-146.19;100.00;65364.44;10302607;28;20512;-52
2022/09/25 11:49:33;;;;;;;1.27;1.25;;;;;;;-146.19;100.00;65364.44;10279546;28;20120;-52
2022/09/25 11:55:11;;;;;;;1.40;1.30;;;;;;;-146.19;100.00;65364.44;10282101;28;20054;-52
2022/09/25 12:01:00;;;;;;;1.50;1.40;;;;;;;-146.19;100.00;65364.44;10300889;28;20050;-52
2022/09/25 12:06:54;;;;;;;1.40;1.30;;;;;;;-146.19;100.00;65364.44;10296030;28;20054;-51
2022/09/25 12:12:44;;;;;;;1.33;1.23;;;;;;;-146.19;100.00;65364.44;10306331;28;20054;-52
2022/09/25 12:18:21;;;;;;;1.30;1.20;;;;;;;-146.19;100.00;65364.44;10285808;28;20057;-53
2022/09/25 12:23:48;;;;;;;1.38;1.27;;;;;;;-146.19;100.00;65364.44;10294991;28;20054;-52
2022/09/25 12:29:27;;;;;;;1.38;1.27;;;;;;;-146.19;100.00;65364.44;10289224;28;20078;-52
2022/09/25 12:34:57;;;;;;;1.50;1.40;;;;;;;-146.19;100.00;65364.44;10298516;28;20059;-52
2022/09/25 12:40:24;;;;;;;1.33;1.20;;;;;;;-146.19;100.00;65364.44;10293402;28;20058;-51
2022/09/25 12:45:46;;;;;;;1.60;1.50;;;;;;;-146.19;100.00;65364.44;10306961;28;20058;-52
2022/09/25 12:51:26;;;;;;;1.40;1.30;;;;;;;-146.19;100.00;65364.44;10302728;28;20069;-52
2022/09/25 12:56:57;;;;;;;1.30;1.20;;;;;;;-146.19;100.00;65364.44;10293047;28;20057;-51
2022/09/25 13:02:41;;;;;;;1.17;1.10;;;;;;;-146.19;100.00;65364.44;10278367;28;20512;-52
2022/09/25 13:08:19;;;;;;;1.30;1.20;;;;;;;-146.19;100.00;65364.44;10291446;28;20051;-52
2022/09/25 13:13:48;;;;;;;1.48;1.38;;;;;;;-146.19;100.00;65364.44;10297920;28;20038;-51
2022/09/25 13:19:10;;;;;;;1.40;1.30;;;;;;;-146.19;100.00;65364.44;10306331;28;20380;-51
2022/09/25 13:24:49;;;;;;;1.38;1.27;;;;;;;-146.19;100.00;65364.44;10292641;28;20054;-52
2022/09/25 13:30:25;;;;;;;1.40;1.30;;;;;;;-146.19;100.00;65364.44;10285420;28;20066;-53
2022/09/25 13:35:45;;;;;;;1.10;1.10;;;;;;;-146.19;100.00;65364.44;10299251;28;20034;-52
2022/09/25 13:41:12;;;;;;;1.13;1.10;;;;;;;-146.19;100.00;65364.44;10291500;28;20050;-52
2022/09/25 13:46:32;;;;;;;1.25;1.15;;;;;;;-146.19;100.00;65364.44;10277792;28;20050;-51
2022/09/25 13:51:52;;;;;;;1.30;1.20;;;;;;;-146.19;100.00;65364.44;10302966;28;20053;-51
2022/09/25 13:57:14;;;;;;;1.55;1.27;;;;;;;-146.19;100.00;65364.44;10317843;28;20054;-53
2022/09/25 14:02:40;;;;;;;2.08;1.50;;;;;;;-146.19;100.00;65364.44;10290869;28;20051;-52
2022/09/25 14:08:13;;;;;;;1.30;1.20;;;;;;;-146.19;100.00;65364.44;10290702;28;20046;-51
2022/09/25 14:13:33;;;;;;;3.55;3.25;;;;;;;-146.19;100.00;65364.44;10290223;28;20058;-51
2022/09/25 14:18:53;;;;;;;3.80;3.50;;;;;;;-146.19;100.00;65364.44;10290391;28;20055;-51
2022/09/25 14:24:20;;;;;;;3.97;3.60;;;;;;;-146.19;100.00;65364.44;10309853;28;20082;-51
2022/09/25 14:29:39;;;;;;;4.22;3.83;;;;;;;-146.19;100.00;65364.44;10295383;28;20043;-54
2022/09/25 14:35:17;;;;;;;4.68;3.80;;;;;;;-146.19;100.00;65364.44;10302300;28;20054;-53
2022/09/25 14:40:53;;;;;;;5.32;4.82;;;;;;;-146.19;100.00;65364.44;10298774;28;20101;-53
2022/09/25 14:46:17;;;;;;;5.38;4.47;;;;;;;-146.19;100.00;65364.44;10316871;28;20401;-53
2022/09/25 14:51:45;;;;;;;5.18;4.28;;;;;;;-146.19;100.00;65364.44;10293491;28;20054;-52
2022/09/25 14:57:06;;;;;;;5.55;4.57;;;;;;;-146.19;100.00;65364.44;10276358;28;20058;-52
2022/09/25 15:02:53;;;;;;;4.53;3.90;;;;;;;-146.19;100.00;65364.44;10263360;28;20562;-53
2022/09/25 15:08:28;;;;;;;4.15;3.75;;;;;;;-146.19;100.00;65364.44;10302463;28;20070;-53
2022/09/25 15:13:48;;;;;;;4.05;3.60;;;;;;;-146.19;100.00;65364.44;10255409;28;20051;-53
2022/09/25 15:19:19;;;;;;;4.30;3.70;;;;;;;-146.19;100.00;65364.44;10256980;28;20066;-53
2022/09/25 15:25:02;;;;;;;3.85;3.53;;;;;;;-146.19;100.00;65364.44;10266938;28;20062;-52
2022/09/25 15:30:25;;;;;;;4.07;3.60;;;;;;;-146.19;100.00;65364.44;10257687;28;20043;-53
2022/09/25 15:35:52;;;;;;;4.55;3.78;;;;;;;-146.19;100.00;65364.44;10270861;28;20047;-53
2022/09/25 15:41:16;;;;;;;4.35;3.50;;;;;;;-146.19;100.00;65364.44;10251675;28;20051;-52
2022/09/25 15:46:36;;;;;;;5.90;3.45;;;;;;;-146.19;100.00;65364.44;10256363;28;20055;-54
2022/09/25 15:52:02;;;;;;;4.43;3.63;;;;;;;-146.19;100.00;65364.44;10271892;28;20457;-53
2022/09/25 15:57:28;;;;;;;4.00;3.53;;;;;;;-146.19;100.00;65364.44;10265939;28;20086;-53
2022/09/25 16:08:35;;;;;;;3.90;3.50;;;;;;;-146.19;100.00;65364.44;10243068;28;20062;-52
2022/09/25 16:14:20;;;;;;;3.90;3.50;;;;;;;-146.19;100.00;65364.44;10265944;28;20052;-54
2022/09/25 16:19:40;;;;;;;3.97;3.60;;;;;;;-146.19;100.00;65364.44;10266937;28;20043;-53
2022/09/25 16:25:00;;;;;;;4.65;3.60;;;;;;;-146.19;100.00;65364.44;10244059;28;20059;-54
2022/09/25 16:30:21;;;;;;;3.92;3.53;;;;;;;-146.19;100.00;65364.44;10273574;28;20057;-53
2022/09/25 16:35:44;;;;;;;3.83;3.53;;;;;;;-146.19;100.00;65364.44;10293645;28;20066;-53
2022/09/25 16:41:25;;;;;;;3.67;3.17;;;;;;;-146.19;100.00;65364.44;10274658;28;20082;-51
2022/09/25 16:47:15;;;;;;;4.40;3.38;;;;;;;-146.19;100.00;65364.44;10276236;28;20078;-52
2022/09/25 16:52:35;;;;;;;3.40;3.10;;;;;;;-146.19;100.00;65364.44;10312466;28;20049;-52
2022/09/25 16:57:55;;;;;;;3.80;3.30;;;;;;;-146.19;100.00;65364.44;10330940;28;20050;-53
2022/09/25 17:03:15;;;;;;;4.30;3.53;;;;;;;-146.19;100.00;65364.44;10342799;28;20046;-53
2022/09/25 17:08:35;;;;;;;4.40;3.30;;;;;;;-146.19;100.00;65364.44;10298981;28;20054;-57
2022/09/25 17:13:55;;;;;;;3.33;3.03;;;;;;;-146.19;100.00;65364.44;10332157;28;20051;-53
2022/09/25 17:19:18;;;;;;;3.58;3.10;;;;;;;-146.19;100.00;65364.44;10306347;28;20058;-53
2022/09/25 17:24:37;;;;;;;5.20;3.00;;;;;;;-146.19;100.00;65364.44;10323564;28;20490;-53
2022/09/25 17:29:56;;;;;;;3.50;3.20;;;;;;;-146.19;100.00;65364.44;10313904;28;20054;-53
2022/09/25 17:35:25;;;;;;;3.40;3.10;;;;;;;-146.19;100.00;65364.44;10343843;28;20461;-54
2022/09/25 17:40:46;;;;;;;3.92;3.00;;;;;;;-146.19;100.00;65364.44;10330525;28;20426;-52
2022/09/25 17:46:08;;;;;;;3.75;3.00;;;;;;;-146.19;100.00;65364.44;10310791;28;20073;-54
2022/09/25 17:51:28;;;;;;;3.65;3.35;;;;;;;-146.19;100.00;65364.44;10327636;28;20116;-52
2022/09/25 17:56:50;;;;;;;8.65;4.75;;;;;;;-146.19;100.00;65364.44;10309222;28;20443;-53
2022/09/25 18:02:14;;;;;;;6.25;3.90;;;;;;;-146.19;100.00;65364.44;10323949;28;20156;-53
2022/09/25 18:07:33;;;;;;;3.80;3.50;;;;;;;-146.19;100.00;65364.44;10310133;28;20072;-53
2022/09/25 18:12:57;;;;;;;4.25;3.75;;;;;;;-146.19;100.00;65364.44;10297192;28;20057;-51
2022/09/25 18:18:17;;;;;;;5.13;3.78;;;;;;;-146.19;100.00;65364.44;10329629;28;20120;-53
2022/09/25 18:23:37;;;;;;;7.22;3.90;;;;;;;-146.19;100.00;65364.44;10329192;28;20054;-53
2022/09/25 18:28:57;;;;;;;7.20;4.18;;;;;;;-146.19;100.00;65364.44;10312606;28;20058;-53
2022/09/25 18:34:17;;;;;;;5.20;4.13;;;;;;;-146.19;100.00;65364.44;10304217;28;20062;-54
2022/09/25 18:39:36;;;;;;;6.85;4.18;;;;;;;-146.19;100.00;65364.44;10303920;28;20525;-62
2022/09/25 18:44:57;;;;;;;5.78;4.28;;;;;;;-146.19;100.00;65364.44;10292222;28;20402;-63
2022/09/25 18:50:17;;;;;;;6.35;3.95;;;;;;;-146.19;100.00;65364.44;10290358;28;20050;-63
2022/09/25 18:55:37;;;;;;;4.10;3.70;;;;;;;-146.19;100.00;65364.44;10299397;28;20418;-62
2022/09/25 19:00:57;;;;;;;4.82;4.32;;;;;;;-146.19;100.00;65364.44;10296863;28;20058;-60
2022/09/25 19:06:17;;;;;;;6.07;4.13;;;;;;;-146.19;100.00;65364.44;10288898;28;20084;-64
2022/09/25 19:11:37;;;;;;;6.68;3.95;;;;;;;-146.19;100.00;65364.44;10313144;28;20050;-64
2022/09/25 19:16:57;;;;;;;5.70;4.07;;;;;;;-146.19;100.00;65364.44;10300694;28;20054;-65
2022/09/25 19:22:18;;;;;;;6.60;3.92;;;;;;;-146.19;100.00;65364.44;10300913;28;20062;-66
2022/09/25 19:27:38;;;;;;;5.35;3.90;;;;;;;-146.19;100.00;65364.44;10297126;28;20057;-63
2022/09/25 19:32:57;;;;;;;4.13;3.70;;;;;;;-146.19;100.00;65364.44;10301514;28;20458;-50
2022/09/25 19:38:17;;;;;;;5.72;3.83;;;;;;;-146.19;100.00;65364.44;10311925;28;20546;-53
2022/09/25 19:43:36;;;;;;;4.47;3.97;;;;;;;-146.19;100.00;65364.44;10315942;28;20449;-53
2022/09/25 19:48:57;;;;;;;4.80;3.83;;;;;;;-146.19;100.00;65364.44;10320637;28;20051;-53
2022/09/25 19:54:17;;;;;;;4.93;4.03;;;;;;;-146.19;100.00;65364.44;10347519;28;20060;-54
2022/09/25 19:59:36;;;;;;;6.10;3.78;;;;;;;-146.19;100.00;65364.44;10333303;28;20545;-54
2022/09/25 20:04:55;;;;;;;5.28;3.83;;;;;;;-146.19;100.00;65364.44;10334977;28;20054;-53
2022/09/25 20:10:15;;;;;;;3.88;3.47;;;;;;;-146.19;100.00;65364.44;10321032;28;20047;-54
2022/09/25 20:15:35;;;;;;;4.43;3.60;;;;;;;-146.19;100.00;65364.44;10345237;28;20047;-54
2022/09/25 20:20:55;;;;;;;4.88;3.60;;;;;;;-146.19;100.00;65364.44;10331406;28;20047;-54
2022/09/25 20:26:15;;;;;;;5.35;3.70;;;;;;;-146.19;100.00;65364.44;10326954;28;20516;-54
2022/09/25 20:31:37;;;;;;;5.63;3.83;;;;;;;-146.19;100.00;65364.44;10324892;28;20046;-53
2022/09/25 20:36:56;;;;;;;3.95;3.55;;;;;;;-146.19;100.00;65364.44;10330885;28;20061;-54
2022/09/25 20:42:18;;;;;;;3.75;3.45;;;;;;;-146.19;100.00;65364.44;10311738;28;20047;-53
2022/09/25 20:47:39;;;;;;;3.72;3.42;;;;;;;-146.19;100.00;65364.44;10303892;28;20058;-54
2022/09/25 20:52:59;;;;;;;3.70;3.20;;;;;;;-146.19;100.00;65364.44;10294833;28;20043;-54
2022/09/25 20:58:19;;;;;;;3.97;3.55;;;;;;;-146.19;100.00;65364.44;10284290;28;20054;-53
2022/09/25 21:03:40;;;;;;;5.15;3.38;;;;;;;-146.19;100.00;65364.44;10293880;28;20062;-53
2022/09/25 21:09:03;;;;;;;5.07;3.40;;;;;;;-146.19;100.00;65364.44;10294130;28;20081;-53
2022/09/25 21:14:26;;;;;;;3.80;3.38;;;;;;;-146.19;100.00;65364.44;10284289;28;20070;-54
2022/09/25 21:19:45;;;;;;;4.10;3.65;;;;;;;-146.19;100.00;65364.44;10281875;28;20074;-54
2022/09/25 21:25:05;;;;;;;3.45;3.15;;;;;;;-146.19;100.00;65364.44;10297304;28;20050;-53
2022/09/25 21:30:25;;;;;;;3.50;3.20;;;;;;;-146.19;100.00;65364.44;10293746;28;20074;-54
2022/09/25 21:35:47;;;;;;;4.60;3.58;;;;;;;-146.19;100.00;65364.44;10286061;28;20061;-54
2022/09/25 21:41:09;;;;;;;3.58;3.25;;;;;;;-146.19;100.00;65364.44;10327818;28;20050;-54
2022/09/25 21:46:30;;;;;;;3.50;3.20;;;;;;;-146.19;100.00;65364.44;10330565;28;20050;-54
2022/09/25 21:51:51;;;;;;;3.65;3.35;;;;;;;-146.19;100.00;65364.44;10319271;28;20046;-54
2022/09/25 21:57:10;;;;;;;3.60;3.30;;;;;;;-146.19;100.00;65364.44;10331073;28;20058;-54
2022/09/25 22:02:30;;;;;;;3.40;3.10;;;;;;;-146.19;100.00;65364.44;10324515;28;20050;-53
2022/09/25 22:07:49;;;;;;;3.20;3.00;;;;;;;-146.19;100.00;65364.44;10317145;28;20046;-53
2022/09/25 22:13:08;;;;;;;3.58;3.28;;;;;;;-146.19;100.00;65364.44;10310149;28;20057;-54
2022/09/25 22:18:28;;;;;;;3.40;3.10;;;;;;;-146.19;100.00;65364.44;10331112;28;20417;-53
2022/09/25 22:23:48;;;;;;;3.15;2.85;;;;;;;-146.19;100.00;65364.44;10342523;28;20566;-54
2022/09/25 22:29:08;;;;;;;3.25;2.92;;;;;;;-146.19;100.00;65364.44;10322939;28;20510;-54
2022/09/25 22:34:28;;;;;;;3.58;3.28;;;;;;;-146.19;100.00;65364.44;10337427;28;20387;-53
2022/09/25 22:39:47;;;;;;;3.28;3.03;;;;;;;-146.19;100.00;65364.44;10332997;28;20058;-53
2022/09/25 22:45:07;;;;;;;3.10;2.90;;;;;;;-146.19;100.00;65364.44;10299381;28;20069;-53
2022/09/25 22:50:26;;;;;;;3.28;2.97;;;;;;;-146.19;100.00;65364.44;10324060;28;20058;-53
2022/09/25 22:55:46;;;;;;;3.35;3.05;;;;;;;-146.19;100.00;65364.44;10338286;28;20101;-53
2022/09/25 23:01:09;;;;;;;3.85;3.20;;;;;;;-146.19;100.00;65364.44;10326298;28;20058;-54
2022/09/25 23:06:31;;;;;;;3.28;2.97;;;;;;;-146.19;100.00;65364.44;10312545;28;20070;-54
2022/09/25 23:11:52;;;;;;;3.35;2.92;;;;;;;-146.19;100.00;65364.44;10336231;28;20054;-53
2022/09/25 23:17:12;;;;;;;3.75;2.92;;;;;;;-146.19;100.00;65364.44;10335299;28;20132;-53
2022/09/25 23:22:31;;;;;;;3.30;3.00;;;;;;;-146.19;100.00;65364.44;10332159;28;20047;-53
2022/09/25 23:27:50;;;;;;;3.05;2.72;;;;;;;-146.19;100.00;65364.44;10330678;28;20421;-52
2022/09/25 23:33:09;;;;;;;3.40;2.78;;;;;;;-146.19;100.00;65364.44;10345920;28;20049;-53
2022/09/25 23:38:28;;;;;;;3.13;2.83;;;;;;;-146.19;100.00;65364.44;10333969;28;20054;-54
2022/09/25 23:43:49;;;;;;;3.28;2.65;;;;;;;-146.19;100.00;65364.44;10299517;28;20050;-53
2022/09/25 23:49:09;;;;;;;2.60;2.40;;;;;;;-146.19;100.00;65364.44;10297730;28;20130;-53
2022/09/25 23:54:28;;;;;;;2.90;2.70;;;;;;;-146.19;100.00;65364.44;10296575;28;20458;-54
2022/09/25 23:59:47;;;;;;;3.17;2.60;;;;;;;-146.19;100.00;65364.44;10284765;28;20134;-54
